Time,TemperatureF,DewpointF,PressureIn,WindDirection,WindDirectionDegrees,WindSpeedMPH,WindSpeedGustMPH,Humidity,HourlyPrecipIn,Conditions,Clouds,dailyrainin,SoftwareType,DateUTC
2013-07-30 00:00:00,59.8,54.3,29.82,WNW,293,4.0,4.0,82,0.00,,,0.00,WUHU216HW,2013-07-30 07:00:00,
2013-07-30 00:04:00,59.8,54.3,29.82,WNW,293,3.1,4.0,82,0.00,,,0.00,WUHU216HW,2013-07-30 07:04:00,
2013-07-30 00:09:00,59.8,54.3,29.82,WNW,293,3.1,3.4,82,0.00,,,0.00,WUHU216HW,2013-07-30 07:09:00,
2013-07-30 00:30:00,59.6,54.1,29.83,West,270,1.3,1.3,82,0.00,,,0.00,WUHU216HW,2013-07-30 07:30:00,
2013-07-30 00:35:00,59.8,54.3,29.83,WNW,293,2.5,2.5,82,0.00,,,0.00,WUHU216HW,2013-07-30 07:35:00,
2013-07-30 00:40:00,59.8,54.3,29.83,WNW,293,2.5,2.5,82,0.00,,,0.00,WUHU216HW,2013-07-30 07:40:00,
2013-07-30 01:00:00,59.2,54.1,29.83,WNW,293,3.6,3.6,83,0.00,,,0.00,WUHU216HW,2013-07-30 08:00:00,
2013-07-30 01:05:00,59.2,54.1,29.83,WNW,293,4.0,4.0,83,0.00,,,0.00,WUHU216HW,2013-07-30 08:05:00,
2013-07-30 01:10:00,59.2,54.1,29.83,WNW,293,4.0,4.0,83,0.00,,,0.00,WUHU216HW,2013-07-30 08:10:00,
2013-07-30 01:30:00,59.2,54.1,29.84,WNW,293,3.8,3.8,83,0.00,,,0.00,WUHU216HW,2013-07-30 08:30:00,
2013-07-30 01:35:00,59.2,54.1,29.84,WSW,248,2.9,3.8,83,0.00,,,0.00,WUHU216HW,2013-07-30 08:35:00,
2013-07-30 01:40:00,59.2,54.1,29.84,WSW,248,2.9,2.9,83,0.00,,,0.00,WUHU216HW,2013-07-30 08:40:00,
2013-07-30 02:00:00,59.0,53.9,29.84,WNW,293,0.4,0.4,83,0.00,,,0.00,WUHU216HW,2013-07-30 09:00:00,
2013-07-30 02:05:00,59.0,53.9,29.84,WNW,293,0.4,0.4,83,0.00,,,0.00,WUHU216HW,2013-07-30 09:05:00,
2013-07-30 02:10:00,59.0,53.9,29.84,WNW,293,0.4,0.4,83,0.00,,,0.00,WUHU216HW,2013-07-30 09:10:00,
2013-07-30 02:30:00,59.2,54.1,29.83,West,270,0.0,0.0,83,0.00,,,0.00,WUHU216HW,2013-07-30 09:30:00,
2013-07-30 02:35:00,59.2,54.1,29.83,West,270,0.0,0.0,83,0.00,,,0.00,WUHU216HW,2013-07-30 09:35:00,
2013-07-30 02:40:00,59.2,54.1,29.83,West,270,0.0,0.0,83,0.00,,,0.00,WUHU216HW,2013-07-30 09:40:00,
2013-07-30 03:00:00,59.4,54.3,29.83,West,270,2.2,2.2,83,0.00,,,0.00,WUHU216HW,2013-07-30 10:00:00,
2013-07-30 03:04:00,59.4,54.3,29.83,West,270,2.0,2.2,83,0.00,,,0.00,WUHU216HW,2013-07-30 10:04:00,
2013-07-30 03:10:00,59.4,54.3,29.83,West,270,2.0,2.2,83,0.00,,,0.00,WUHU216HW,2013-07-30 10:10:00,
2013-07-30 03:30:00,59.4,54.3,29.83,West,270,1.6,1.6,83,0.00,,,0.00,WUHU216HW,2013-07-30 10:30:00,
2013-07-30 03:35:00,59.4,54.3,29.83,WNW,293,1.1,1.6,83,0.00,,,0.00,WUHU216HW,2013-07-30 10:35:00,
2013-07-30 03:40:00,59.4,54.3,29.83,WNW,293,1.1,1.6,83,0.00,,,0.00,WUHU216HW,2013-07-30 10:40:00,
2013-07-30 04:00:00,58.9,54.0,29.83,WNW,293,1.6,1.6,84,0.00,,,0.00,WUHU216HW,2013-07-30 11:00:00,
2013-07-30 04:05:00,59.0,54.2,29.83,WNW,293,1.6,1.6,84,0.00,,,0.00,WUHU216HW,2013-07-30 11:05:00,
2013-07-30 04:10:00,59.0,54.2,29.83,WNW,293,1.6,1.6,84,0.00,,,0.00,WUHU216HW,2013-07-30 11:10:00,
2013-07-30 04:30:00,59.0,54.2,29.83,West,270,3.8,3.8,84,0.00,,,0.00,WUHU216HW,2013-07-30 11:30:00,
2013-07-30 04:35:00,59.0,54.2,29.83,WNW,293,3.1,3.8,84,0.00,,,0.00,WUHU216HW,2013-07-30 11:35:00,
2013-07-30 04:40:00,59.0,54.2,29.83,WNW,293,3.1,3.1,84,0.00,,,0.00,WUHU216HW,2013-07-30 11:40:00,
2013-07-30 05:00:00,59.4,54.5,29.83,WNW,293,1.1,1.1,84,0.00,,,0.00,WUHU216HW,2013-07-30 12:00:00,
2013-07-30 05:05:00,59.4,54.5,29.83,WNW,293,1.6,1.6,84,0.00,,,0.00,WUHU216HW,2013-07-30 12:05:00,
2013-07-30 05:10:00,59.4,54.5,29.83,WNW,293,1.6,1.6,84,0.00,,,0.00,WUHU216HW,2013-07-30 12:10:00,
2013-07-30 05:30:00,60.7,55.5,29.84,WNW,293,0.0,0.0,83,0.00,,,0.00,WUHU216HW,2013-07-30 12:30:00,
2013-07-30 05:35:00,60.8,55.7,29.84,WNW,293,0.0,0.0,83,0.00,,,0.00,WUHU216HW,2013-07-30 12:35:00,
2013-07-30 05:40:00,60.8,55.7,29.84,WNW,293,0.0,0.0,83,0.00,,,0.00,WUHU216HW,2013-07-30 12:40:00,
2013-07-30 06:00:00,61.9,55.4,29.84,NW,315,0.2,0.2,79,0.00,,,0.00,WUHU216HW,2013-07-30 13:00:00,
2013-07-30 06:05:00,61.9,55.4,29.84,NW,315,0.0,0.2,79,0.00,,,0.00,WUHU216HW,2013-07-30 13:05:00,
2013-07-30 06:10:00,61.9,55.4,29.84,NW,315,0.0,0.2,79,0.00,,,0.00,WUHU216HW,2013-07-30 13:10:00,
2013-07-30 06:30:00,62.3,55.6,29.84,WNW,293,0.0,0.0,79,0.00,,,0.00,WUHU216HW,2013-07-30 13:30:00,
2013-07-30 06:35:00,62.3,55.6,29.84,WNW,293,0.0,0.0,79,0.00,,,0.00,WUHU216HW,2013-07-30 13:35:00,
2013-07-30 06:40:00,62.3,55.6,29.84,WNW,293,0.0,0.0,79,0.00,,,0.00,WUHU216HW,2013-07-30 13:40:00,
2013-07-30 07:00:00,62.3,54.9,29.85,West,270,1.6,1.6,77,0.00,,,0.00,WUHU216HW,2013-07-30 14:00:00,
2013-07-30 07:05:00,62.3,54.9,29.85,West,270,1.6,1.6,77,0.00,,,0.00,WUHU216HW,2013-07-30 14:05:00,
2013-07-30 07:10:00,62.3,54.9,29.85,West,270,1.6,1.6,77,0.00,,,0.00,WUHU216HW,2013-07-30 14:10:00,
2013-07-30 07:30:00,60.3,54.2,29.86,WNW,293,3.6,3.6,80,0.00,,,0.00,WUHU216HW,2013-07-30 14:30:00,
2013-07-30 07:35:00,60.3,54.2,29.86,West,270,2.9,3.6,80,0.00,,,0.00,WUHU216HW,2013-07-30 14:35:00,
2013-07-30 07:40:00,60.3,54.2,29.86,West,270,2.9,2.9,80,0.00,,,0.00,WUHU216HW,2013-07-30 14:40:00,
2013-07-30 08:00:00,60.1,54.4,29.87,WNW,293,0.9,0.9,81,0.00,,,0.00,WUHU216HW,2013-07-30 15:00:00,
2013-07-30 08:05:00,60.1,54.4,29.87,WNW,293,0.4,0.9,81,0.00,,,0.00,WUHU216HW,2013-07-30 15:05:00,
2013-07-30 08:10:00,60.1,54.4,29.87,WNW,293,0.4,0.9,81,0.00,,,0.00,WUHU216HW,2013-07-30 15:10:00,
2013-07-30 08:30:00,61.6,55.4,29.88,WSW,248,0.9,0.9,80,0.00,,,0.00,WUHU216HW,2013-07-30 15:30:00,
2013-07-30 08:35:00,61.6,55.4,29.88,WSW,248,0.7,0.9,80,0.00,,,0.00,WUHU216HW,2013-07-30 15:35:00,
2013-07-30 08:40:00,61.6,55.4,29.88,WSW,248,0.7,0.9,80,0.00,,,0.00,WUHU216HW,2013-07-30 15:40:00,
2013-07-30 09:00:00,62.3,55.6,29.89,WNW,293,4.0,4.0,79,0.00,,,0.00,WUHU216HW,2013-07-30 16:00:00,
2013-07-30 09:05:00,62.3,55.6,29.89,WNW,293,2.7,4.0,79,0.00,,,0.00,WUHU216HW,2013-07-30 16:05:00,
2013-07-30 09:10:00,62.3,55.6,29.89,WNW,293,2.7,3.8,79,0.00,,,0.00,WUHU216HW,2013-07-30 16:10:00,
2013-07-30 09:30:00,62.5,55.8,29.89,West,270,1.3,1.3,79,0.00,,,0.00,WUHU216HW,2013-07-30 16:30:00,
2013-07-30 09:35:00,62.5,55.4,29.89,West,270,1.3,1.3,78,0.00,,,0.00,WUHU216HW,2013-07-30 16:35:00,
2013-07-30 09:40:00,62.5,55.4,29.89,West,270,1.3,1.3,78,0.00,,,0.00,WUHU216HW,2013-07-30 16:40:00,
2013-07-30 10:00:00,63.0,55.6,29.89,WNW,293,5.4,5.4,77,0.00,,,0.00,WUHU216HW,2013-07-30 17:00:00,
2013-07-30 10:05:00,63.0,56.0,29.89,WNW,293,5.4,5.4,78,0.00,,,0.00,WUHU216HW,2013-07-30 17:05:00,
2013-07-30 10:10:00,63.0,56.0,29.89,WNW,293,5.4,5.4,78,0.00,,,0.00,WUHU216HW,2013-07-30 17:10:00,
2013-07-30 10:30:00,63.4,56.0,29.89,West,270,2.9,2.9,77,0.00,,,0.00,WUHU216HW,2013-07-30 17:30:00,
2013-07-30 10:35:00,63.4,56.0,29.89,WNW,293,2.0,2.9,77,0.00,,,0.00,WUHU216HW,2013-07-30 17:35:00,
2013-07-30 10:40:00,63.4,56.0,29.89,WNW,293,2.0,2.0,77,0.00,,,0.00,WUHU216HW,2013-07-30 17:40:00,
2013-07-30 11:00:00,64.4,56.7,29.90,WNW,293,5.8,5.8,76,0.00,,,0.00,WUHU216HW,2013-07-30 18:00:00,
2013-07-30 11:05:00,64.4,56.7,29.90,West,270,7.6,7.6,76,0.00,,,0.00,WUHU216HW,2013-07-30 18:05:00,
2013-07-30 11:10:00,64.4,56.7,29.90,West,270,7.6,7.6,76,0.00,,,0.00,WUHU216HW,2013-07-30 18:10:00,
2013-07-30 11:30:00,65.2,56.7,29.90,NW,315,6.5,6.5,74,0.00,,,0.00,WUHU216HW,2013-07-30 18:30:00,
2013-07-30 11:35:00,65.2,56.7,29.90,WNW,293,7.4,7.4,74,0.00,,,0.00,WUHU216HW,2013-07-30 18:35:00,
2013-07-30 11:40:00,65.2,56.7,29.90,WNW,293,7.4,7.4,74,0.00,,,0.00,WUHU216HW,2013-07-30 18:40:00,
2013-07-30 12:00:00,67.7,57.6,29.90,West,270,7.2,7.2,70,0.00,,,0.00,WUHU216HW,2013-07-30 19:00:00,
2013-07-30 12:05:00,67.7,57.6,29.90,WNW,293,4.0,7.2,70,0.00,,,0.00,WUHU216HW,2013-07-30 19:05:00,
2013-07-30 12:10:00,67.7,57.6,29.90,WNW,293,4.0,4.0,70,0.00,,,0.00,WUHU216HW,2013-07-30 19:10:00,
2013-07-30 12:30:00,70.2,57.1,29.89,WNW,293,7.6,7.6,63,0.00,,,0.00,WUHU216HW,2013-07-30 19:30:00,
2013-07-30 12:35:00,70.2,57.1,29.89,WNW,293,7.6,7.6,63,0.00,,,0.00,WUHU216HW,2013-07-30 19:35:00,
2013-07-30 12:40:00,70.2,57.1,29.89,WNW,293,7.6,7.6,63,0.00,,,0.00,WUHU216HW,2013-07-30 19:40:00,
2013-07-30 13:00:00,72.0,57.8,29.89,WNW,293,8.5,8.5,61,0.00,,,0.00,WUHU216HW,2013-07-30 20:00:00,
2013-07-30 13:05:00,72.0,57.8,29.89,WNW,293,8.5,8.5,61,0.00,,,0.00,WUHU216HW,2013-07-30 20:05:00,
2013-07-30 13:10:00,72.0,57.8,29.89,WNW,293,8.5,8.5,61,0.00,,,0.00,WUHU216HW,2013-07-30 20:10:00,
2013-07-30 13:30:00,72.0,57.8,29.89,WNW,293,8.5,8.5,61,0.00,,,0.00,WUHU216HW,2013-07-30 20:30:00,
2013-07-30 13:35:00,72.0,57.8,29.89,NW,315,6.9,8.5,61,0.00,,,0.00,WUHU216HW,2013-07-30 20:35:00,
2013-07-30 13:40:00,72.0,57.8,29.89,NW,315,6.9,8.5,61,0.00,,,0.00,WUHU216HW,2013-07-30 20:40:00,
2013-07-30 14:00:00,70.2,56.6,29.89,WNW,293,15.4,15.4,62,0.00,,,0.00,WUHU216HW,2013-07-30 21:00:00,
2013-07-30 14:05:00,70.2,56.6,29.89,WNW,293,13.6,15.4,62,0.00,,,0.00,WUHU216HW,2013-07-30 21:05:00,
2013-07-30 14:10:00,70.2,56.6,29.89,WNW,293,13.6,13.6,62,0.00,,,0.00,WUHU216HW,2013-07-30 21:10:00,
2013-07-30 14:30:00,71.1,57.9,29.89,West,270,10.3,10.3,63,0.00,,,0.00,WUHU216HW,2013-07-30 21:30:00,
2013-07-30 14:35:00,71.1,57.9,29.89,WNW,293,12.8,12.8,63,0.00,,,0.00,WUHU216HW,2013-07-30 21:35:00,
2013-07-30 14:40:00,71.1,57.9,29.89,WNW,293,12.8,12.8,63,0.00,,,0.00,WUHU216HW,2013-07-30 21:40:00,
2013-07-30 15:00:00,70.7,57.1,29.89,WNW,293,8.5,8.5,62,0.00,,,0.00,WUHU216HW,2013-07-30 22:00:00,
2013-07-30 15:05:00,70.7,57.1,29.89,NW,315,8.7,8.7,62,0.00,,,0.00,WUHU216HW,2013-07-30 22:05:00,
2013-07-30 15:10:00,70.7,57.1,29.89,NW,315,8.7,8.7,62,0.00,,,0.00,WUHU216HW,2013-07-30 22:10:00,
2013-07-30 15:30:00,69.5,56.4,29.88,WNW,293,13.2,13.2,63,0.00,,,0.00,WUHU216HW,2013-07-30 22:30:00,
2013-07-30 15:35:00,69.5,56.4,29.88,WNW,293,13.2,13.2,63,0.00,,,0.00,WUHU216HW,2013-07-30 22:35:00,
2013-07-30 15:40:00,69.5,56.4,29.88,WNW,293,13.2,13.2,63,0.00,,,0.00,WUHU216HW,2013-07-30 22:40:00,
2013-07-30 16:00:00,69.3,56.2,29.88,WNW,293,8.3,8.3,63,0.00,,,0.00,WUHU216HW,2013-07-30 23:00:00,
2013-07-30 16:05:00,69.1,56.4,29.88,WNW,293,7.4,8.3,64,0.00,,,0.00,WUHU216HW,2013-07-30 23:05:00,
2013-07-30 16:10:00,69.1,56.4,29.88,WNW,293,7.4,7.4,64,0.00,,,0.00,WUHU216HW,2013-07-30 23:10:00,
2013-07-30 16:30:00,67.3,56.4,29.88,WNW,293,4.0,4.0,68,0.00,,,0.00,WUHU216HW,2013-07-30 23:30:00,
2013-07-30 16:35:00,67.5,56.6,29.88,WSW,248,4.9,4.9,68,0.00,,,0.00,WUHU216HW,2013-07-30 23:35:00,
2013-07-30 16:40:00,67.5,56.6,29.88,WSW,248,4.9,4.9,68,0.00,,,0.00,WUHU216HW,2013-07-30 23:40:00,
2013-07-30 17:00:00,66.4,55.5,29.87,WNW,293,15.4,15.4,68,0.00,,,0.00,WUHU216HW,2013-07-31 00:00:00,
2013-07-30 17:05:00,66.4,55.9,29.87,West,270,11.4,15.4,69,0.00,,,0.00,WUHU216HW,2013-07-31 00:05:00,
2013-07-30 17:10:00,66.4,55.9,29.87,West,270,11.4,12.1,69,0.00,,,0.00,WUHU216HW,2013-07-31 00:10:00,
2013-07-30 17:30:00,64.8,55.6,29.87,WNW,293,8.9,8.9,72,0.00,,,0.00,WUHU216HW,2013-07-31 00:30:00,
2013-07-30 17:35:00,64.8,55.6,29.87,NW,315,6.7,8.9,72,0.00,,,0.00,WUHU216HW,2013-07-31 00:35:00,
2013-07-30 17:40:00,64.8,55.6,29.87,NW,315,6.7,8.9,72,0.00,,,0.00,WUHU216HW,2013-07-31 00:40:00,
2013-07-30 18:00:00,63.5,55.1,29.87,WNW,293,6.7,6.7,74,0.00,,,0.00,WUHU216HW,2013-07-31 01:00:00,
2013-07-30 18:05:00,63.5,55.1,29.87,WNW,293,5.4,6.7,74,0.00,,,0.00,WUHU216HW,2013-07-31 01:05:00,
2013-07-30 18:10:00,63.5,55.1,29.87,WNW,293,5.4,5.6,74,0.00,,,0.00,WUHU216HW,2013-07-31 01:10:00,
2013-07-30 18:30:00,62.3,54.5,29.87,NW,315,7.2,7.2,76,0.00,,,0.00,WUHU216HW,2013-07-31 01:30:00,
2013-07-30 18:35:00,62.3,54.5,29.87,NW,315,7.2,7.2,76,0.00,,,0.00,WUHU216HW,2013-07-31 01:35:00,
2013-07-30 18:40:00,62.3,54.5,29.87,NW,315,7.2,7.2,76,0.00,,,0.00,WUHU216HW,2013-07-31 01:40:00,
2013-07-30 19:00:00,61.2,54.4,29.87,West,270,4.7,4.7,78,0.00,,,0.00,WUHU216HW,2013-07-31 02:00:00,
2013-07-30 19:05:00,61.2,54.4,29.87,West,270,5.6,5.6,78,0.00,,,0.00,WUHU216HW,2013-07-31 02:05:00,
2013-07-30 19:10:00,61.2,54.4,29.87,West,270,5.6,5.6,78,0.00,,,0.00,WUHU216HW,2013-07-31 02:10:00,
2013-07-30 19:30:00,60.5,54.4,29.87,WNW,293,7.8,7.8,80,0.00,,,0.00,WUHU216HW,2013-07-31 02:30:00,
2013-07-30 19:35:00,60.5,54.4,29.87,WNW,293,6.3,7.8,80,0.00,,,0.00,WUHU216HW,2013-07-31 02:35:00,
2013-07-30 19:40:00,60.5,54.4,29.87,WNW,293,6.3,7.8,80,0.00,,,0.00,WUHU216HW,2013-07-31 02:40:00,
2013-07-30 20:00:00,60.3,54.2,29.87,West,270,5.4,5.4,80,0.00,,,0.00,WUHU216HW,2013-07-31 03:00:00,
2013-07-30 20:05:00,60.3,54.2,29.87,WNW,293,2.7,5.4,80,0.00,,,0.00,WUHU216HW,2013-07-31 03:05:00,
2013-07-30 20:10:00,60.3,54.2,29.87,WNW,293,2.7,3.8,80,0.00,,,0.00,WUHU216HW,2013-07-31 03:10:00,
2013-07-30 20:30:00,60.1,54.0,29.87,WNW,293,2.0,2.0,80,0.00,,,0.00,WUHU216HW,2013-07-31 03:30:00,
2013-07-30 20:35:00,60.1,54.0,29.87,WNW,293,4.0,4.0,80,0.00,,,0.00,WUHU216HW,2013-07-31 03:35:00,
2013-07-30 20:40:00,60.1,54.0,29.87,WNW,293,4.0,4.0,80,0.00,,,0.00,WUHU216HW,2013-07-31 03:40:00,
2013-07-30 21:00:00,60.3,54.2,29.87,WNW,293,2.5,2.5,80,0.00,,,0.00,WUHU216HW,2013-07-31 04:00:00,
2013-07-30 21:01:00,60.3,54.2,29.87,West,270,3.1,3.1,80,0.00,,,0.00,WUHU216HW,2013-07-31 04:01:00,
2013-07-30 21:02:00,60.3,54.2,29.87,West,270,3.1,3.1,80,0.00,,,0.00,WUHU216HW,2013-07-31 04:02:00,
2013-07-30 21:07:00,60.3,54.2,29.87,West,270,3.1,3.1,80,0.00,,,0.00,WUHU216HW,2013-07-31 04:07:00,
2013-07-30 21:30:00,60.7,54.2,29.88,WNW,293,3.4,3.4,79,0.00,,,0.00,WUHU216HW,2013-07-31 04:30:00,
2013-07-30 21:35:00,60.7,54.2,29.88,WNW,293,3.4,3.4,79,0.00,,,0.00,WUHU216HW,2013-07-31 04:35:00,
2013-07-30 21:40:00,60.7,54.2,29.88,WNW,293,3.4,3.4,79,0.00,,,0.00,WUHU216HW,2013-07-31 04:40:00,
2013-07-30 22:00:00,60.3,54.2,29.89,West,270,1.3,1.3,80,0.00,,,0.00,WUHU216HW,2013-07-31 05:00:00,
2013-07-30 22:05:00,60.3,54.2,29.89,West,270,2.2,2.2,80,0.00,,,0.00,WUHU216HW,2013-07-31 05:05:00,
2013-07-30 22:10:00,60.3,54.2,29.89,West,270,2.2,2.2,80,0.00,,,0.00,WUHU216HW,2013-07-31 05:10:00,
2013-07-30 22:30:00,59.9,53.8,29.89,WNW,293,5.1,5.1,80,0.00,,,0.00,WUHU216HW,2013-07-31 05:30:00,
2013-07-30 22:35:00,59.9,53.8,29.89,WNW,293,2.7,5.1,80,0.00,,,0.00,WUHU216HW,2013-07-31 05:35:00,
2013-07-30 22:40:00,59.9,53.8,29.89,WNW,293,2.7,4.5,80,0.00,,,0.00,WUHU216HW,2013-07-31 05:40:00,
2013-07-30 23:00:00,60.8,54.4,29.89,WNW,293,0.9,0.9,79,0.00,,,0.00,WUHU216HW,2013-07-31 06:00:00,
2013-07-30 23:05:00,60.8,54.4,29.89,West,270,2.0,2.0,79,0.00,,,0.00,WUHU216HW,2013-07-31 06:05:00,
2013-07-30 23:10:00,60.8,54.4,29.89,West,270,2.0,2.0,79,0.00,,,0.00,WUHU216HW,2013-07-31 06:10:00,
2013-07-30 23:30:00,61.4,54.8,29.89,WNW,293,1.1,1.1,79,0.00,,,0.00,WUHU216HW,2013-07-31 06:30:00,
2013-07-30 23:35:00,61.4,54.8,29.89,NW,315,1.6,1.6,79,0.00,,,0.00,WUHU216HW,2013-07-31 06:35:00,
2013-07-30 23:40:00,61.4,54.8,29.89,NW,315,1.6,1.6,79,0.00,,,0.00,WUHU216HW,2013-07-31 06:40:00,